Ontario, New York
Current Conditions -  °F | °C
As of 9:54 PM on Monday 20 Oct 2014 (Local Time) from KROC Reporting Station
Moderate Rain Moderate Rain  
Wind Chill: 50°   Ceiling: 3500
Heat Index: 50°   Visibility: 7mi
Dew Point: 47°   Wind: 6mph
Humidity: 89%   Direction: 190°S
Pressure: 29.85"   Gusts: NA
Location:  43.22°N, 77.28°W
Report Text: KROC 210154Z 19005KT 7SM RA BKN035 BKN048 OVC060 10/08 A2985 RMK AO2 SLP113 P0008 T01000083
Loading
Personal Weather Stations






























Interactive Weather Map
Tropical Storm Tracking
New forecast layout! Learn more

10-Day Weather Forecast

Advertisements
Track Severe Weather on mobile